Varmdo — SMXZ — position and weather

sailwx.info

Track history (hours):
 
Tides and Currents Weather Stations Pressure Air Temp Water Temp Dewpoint Dewpoint Depression Visibility Wind Speed Wind Dir Waves Ship Positions

Varmdo

Last reported at 2015-May-22 11:19 UTC. Time now 2015-May-22 23:44 UTC.
Position N 59°19' E 018°10'.

Length 38 m; draft 2.5 m.

Type: Passenger vessel. MMSI: 265520390.

Date/timePositionNaut miles runAvg speedWind from/ knotsBaromVisibWave heightAir tempDewpointWater temp
2015-May-22 11:19N 59°19' E 018°10'3 3.0
2015-May-22 10:23N 59°20' E 018°05'0 0.0
2015-May-22 09:29N 59°20' E 018°05'0 0.0
2015-May-22 08:17N 59°20' E 018°05'8 8.4
2015-May-22 07:17N 59°23' E 018°20'6 0.1
2015-May-20 13:24N 59°19' E 018°11'3 3.6
2015-May-20 12:32N 59°20' E 018°05'0 0.0
2015-May-20 11:32N 59°20' E 018°05'0 0.0
2015-May-20 10:32N 59°20' E 018°05'0 0.0
2015-May-20 09:32N 59°20' E 018°05'0 0.0
2015-May-20 08:32N 59°20' E 018°05'8 6.7
2015-May-20 07:19N 59°23' E 018°19'7 0.2
2015-May-18 13:14N 59°19' E 018°07'1 2.1
2015-May-18 12:33N 59°20' E 018°05'0 0.0
2015-May-18 11:33N 59°20' E 018°05'0 0.0
2015-May-18 09:27N 59°20' E 018°05'0 0.0
2015-May-18 08:33N 59°20' E 018°05'  
2015-May-15 11:17N 59°19' E 018°09'2 3.2
2015-May-15 10:30N 59°20' E 018°04'0 0.0
2015-May-15 09:33N 59°20' E 018°04'0 0.0
2015-May-15 08:33N 59°20' E 018°04'6 5.7
2015-May-15 07:30N 59°22' E 018°16'2 0.1
2015-May-13 11:24N 59°20' E 018°12'4 4.3
2015-May-13 10:27N 59°20' E 018°05'0 0.0
2015-May-13 09:33N 59°20' E 018°05'0 0.0
2015-May-13 08:33N 59°20' E 018°05'8 6.7
2015-May-13 07:26N 59°22' E 018°18'  
Track history (hours):
 
Tides and Currents Weather Stations Pressure Air Temp Water Temp Dewpoint Dewpoint Depression Visibility Wind Speed Wind Dir Waves Ship Positions

Varmdo

Last reported at 2015-May-22 11:19 UTC. Time now 2015-May-22 23:44 UTC.
Position N 59°19' E 018°10'.

Length 38 m; draft 2.5 m.

Type: Passenger vessel. MMSI: 265520390.

Date/timePositionNaut miles runAvg speedWind from/ knotsBaromVisibWave heightAir tempDewpointWater temp
2015-May-22 11:19N 59°19' E 018°10'3 3.0
2015-May-22 10:23N 59°20' E 018°05'0 0.0
2015-May-22 09:29N 59°20' E 018°05'0 0.0
2015-May-22 08:17N 59°20' E 018°05'8 8.4
2015-May-22 07:17N 59°23' E 018°20'6 0.1
2015-May-20 13:24N 59°19' E 018°11'3 3.6
2015-May-20 12:32N 59°20' E 018°05'0 0.0
2015-May-20 11:32N 59°20' E 018°05'0 0.0
2015-May-20 10:32N 59°20' E 018°05'0 0.0
2015-May-20 09:32N 59°20' E 018°05'0 0.0
2015-May-20 08:32N 59°20' E 018°05'8 6.7
2015-May-20 07:19N 59°23' E 018°19'7 0.2
2015-May-18 13:14N 59°19' E 018°07'1 2.1
2015-May-18 12:33N 59°20' E 018°05'0 0.0
2015-May-18 11:33N 59°20' E 018°05'0 0.0
2015-May-18 09:27N 59°20' E 018°05'0 0.0
2015-May-18 08:33N 59°20' E 018°05'  
2015-May-15 11:17N 59°19' E 018°09'2 3.2
2015-May-15 10:30N 59°20' E 018°04'0 0.0
2015-May-15 09:33N 59°20' E 018°04'0 0.0
2015-May-15 08:33N 59°20' E 018°04'6 5.7
2015-May-15 07:30N 59°22' E 018°16'2 0.1
2015-May-13 11:24N 59°20' E 018°12'4 4.3
2015-May-13 10:27N 59°20' E 018°05'0 0.0
2015-May-13 09:33N 59°20' E 018°05'0 0.0
2015-May-13 08:33N 59°20' E 018°05'8 6.7
2015-May-13 07:26N 59°22' E 018°18'  

Dump ship's entire track history